sensor_id;sensor_type;location;lat;lon;timestamp;temperature;humidity
9723;DHT22;4900;49.306;8.500;2023-04-30T00:00:31;14.18;70.77
9723;DHT22;4900;49.306;8.500;2023-04-30T00:02:57;14.14;70.87
9723;DHT22;4900;49.306;8.500;2023-04-30T00:05:22;14.15;70.98
9723;DHT22;4900;49.306;8.500;2023-04-30T00:07:48;14.14;71.02
9723;DHT22;4900;49.306;8.500;2023-04-30T00:10:13;14.11;71.08
9723;DHT22;4900;49.306;8.500;2023-04-30T00:12:38;14.06;71.11
9723;DHT22;4900;49.306;8.500;2023-04-30T00:15:04;14.04;71.15
9723;DHT22;4900;49.306;8.500;2023-04-30T00:17:30;14.02;71.00
9723;DHT22;4900;49.306;8.500;2023-04-30T00:19:55;14.04;70.93
9723;DHT22;4900;49.306;8.500;2023-04-30T00:22:20;14.01;70.92
9723;DHT22;4900;49.306;8.500;2023-04-30T00:24:46;14.05;70.76
9723;DHT22;4900;49.306;8.500;2023-04-30T00:27:11;14.02;70.71
9723;DHT22;4900;49.306;8.500;2023-04-30T00:29:37;14.04;70.67
9723;DHT22;4900;49.306;8.500;2023-04-30T00:32:02;14.02;70.69
9723;DHT22;4900;49.306;8.500;2023-04-30T00:34:28;14.01;70.71
9723;DHT22;4900;49.306;8.500;2023-04-30T00:36:53;14.01;70.64
9723;DHT22;4900;49.306;8.500;2023-04-30T00:39:19;14.01;70.63
9723;DHT22;4900;49.306;8.500;2023-04-30T00:41:45;14.00;70.73
9723;DHT22;4900;49.306;8.500;2023-04-30T00:44:10;14.01;70.72
9723;DHT22;4900;49.306;8.500;2023-04-30T00:46:35;14.00;70.71
9723;DHT22;4900;49.306;8.500;2023-04-30T00:49:01;13.98;70.76
9723;DHT22;4900;49.306;8.500;2023-04-30T00:51:30;14.01;70.79
9723;DHT22;4900;49.306;8.500;2023-04-30T00:53:57;14.00;70.73
9723;DHT22;4900;49.306;8.500;2023-04-30T00:56:29;13.97;70.86
9723;DHT22;4900;49.306;8.500;2023-04-30T00:58:55;13.95;70.98
9723;DHT22;4900;49.306;8.500;2023-04-30T01:01:25;13.93;71.27
9723;DHT22;4900;49.306;8.500;2023-04-30T01:03:53;13.91;71.49
9723;DHT22;4900;49.306;8.500;2023-04-30T01:06:18;13.93;71.47
9723;DHT22;4900;49.306;8.500;2023-04-30T01:08:44;13.88;71.55
9723;DHT22;4900;49.306;8.500;2023-04-30T01:14:08;13.87;71.39
9723;DHT22;4900;49.306;8.500;2023-04-30T01:16:50;13.83;71.41
9723;DHT22;4900;49.306;8.500;2023-04-30T01:19:38;13.83;71.40
9723;DHT22;4900;49.306;8.500;2023-04-30T01:22:09;13.80;71.50
9723;DHT22;4900;49.306;8.500;2023-04-30T01:24:48;13.77;71.54
9723;DHT22;4900;49.306;8.500;2023-04-30T01:27:29;13.74;71.61
9723;DHT22;4900;49.306;8.500;2023-04-30T01:29:56;13.74;71.56
9723;DHT22;4900;49.306;8.500;2023-04-30T01:32:22;13.77;71.54
9723;DHT22;4900;49.306;8.500;2023-04-30T01:34:48;13.73;71.56
9723;DHT22;4900;49.306;8.500;2023-04-30T01:40:02;13.70;71.40
9723;DHT22;4900;49.306;8.500;2023-04-30T01:45:29;13.67;71.44
9723;DHT22;4900;49.306;8.500;2023-04-30T01:50:45;13.70;71.48
9723;DHT22;4900;49.306;8.500;2023-04-30T01:53:31;13.64;71.55
9723;DHT22;4900;49.306;8.500;2023-04-30T01:56:02;13.67;71.52
9723;DHT22;4900;49.306;8.500;2023-04-30T01:58:29;13.64;71.51
9723;DHT22;4900;49.306;8.500;2023-04-30T02:00:54;13.64;71.56
9723;DHT22;4900;49.306;8.500;2023-04-30T02:03:20;13.64;71.57
9723;DHT22;4900;49.306;8.500;2023-04-30T02:05:46;13.61;71.55
9723;DHT22;4900;49.306;8.500;2023-04-30T02:08:11;13.63;71.56
9723;DHT22;4900;49.306;8.500;2023-04-30T02:10:37;13.64;71.52
9723;DHT22;4900;49.306;8.500;2023-04-30T02:13:02;13.61;71.51
9723;DHT22;4900;49.306;8.500;2023-04-30T02:15:28;13.61;71.58
9723;DHT22;4900;49.306;8.500;2023-04-30T02:17:53;13.60;71.68
9723;DHT22;4900;49.306;8.500;2023-04-30T02:20:19;13.60;71.73
9723;DHT22;4900;49.306;8.500;2023-04-30T02:22:44;13.59;71.82
9723;DHT22;4900;49.306;8.500;2023-04-30T02:25:10;13.56;71.84
9723;DHT22;4900;49.306;8.500;2023-04-30T02:27:36;13.57;71.89
9723;DHT22;4900;49.306;8.500;2023-04-30T02:30:02;13.56;71.97
9723;DHT22;4900;49.306;8.500;2023-04-30T02:32:28;13.54;72.07
9723;DHT22;4900;49.306;8.500;2023-04-30T02:34:54;13.54;72.12
9723;DHT22;4900;49.306;8.500;2023-04-30T02:37:20;13.56;72.16
9723;DHT22;4900;49.306;8.500;2023-04-30T02:39:45;13.52;72.22
9723;DHT22;4900;49.306;8.500;2023-04-30T02:42:10;13.53;72.20
9723;DHT22;4900;49.306;8.500;2023-04-30T02:44:36;13.52;72.20
9723;DHT22;4900;49.306;8.500;2023-04-30T02:47:01;13.52;72.27
9723;DHT22;4900;49.306;8.500;2023-04-30T02:49:28;13.50;72.30
9723;DHT22;4900;49.306;8.500;2023-04-30T02:51:54;13.46;72.39
9723;DHT22;4900;49.306;8.500;2023-04-30T02:54:19;13.47;72.46
9723;DHT22;4900;49.306;8.500;2023-04-30T02:56:45;13.44;72.50
9723;DHT22;4900;49.306;8.500;2023-04-30T02:59:11;13.43;72.48
9723;DHT22;4900;49.306;8.500;2023-04-30T03:01:37;13.43;72.45
9723;DHT22;4900;49.306;8.500;2023-04-30T03:04:02;13.40;72.48
9723;DHT22;4900;49.306;8.500;2023-04-30T03:06:29;13.40;72.39
9723;DHT22;4900;49.306;8.500;2023-04-30T03:08:55;13.39;72.36
9723;DHT22;4900;49.306;8.500;2023-04-30T03:11:21;13.38;72.32
9723;DHT22;4900;49.306;8.500;2023-04-30T03:13:47;13.36;72.28
9723;DHT22;4900;49.306;8.500;2023-04-30T03:16:16;13.38;72.30
9723;DHT22;4900;49.306;8.500;2023-04-30T03:18:42;13.35;72.36
9723;DHT22;4900;49.306;8.500;2023-04-30T03:21:08;13.35;72.32
9723;DHT22;4900;49.306;8.500;2023-04-30T03:23:34;13.35;72.34
9723;DHT22;4900;49.306;8.500;2023-04-30T03:25:59;13.33;72.27
9723;DHT22;4900;49.306;8.500;2023-04-30T03:28:25;13.38;72.23
9723;DHT22;4900;49.306;8.500;2023-04-30T03:30:51;13.35;72.26
9723;DHT22;4900;49.306;8.500;2023-04-30T03:33:16;13.33;72.32
9723;DHT22;4900;49.306;8.500;2023-04-30T03:35:42;13.31;72.38
9723;DHT22;4900;49.306;8.500;2023-04-30T03:38:07;13.32;72.46
9723;DHT22;4900;49.306;8.500;2023-04-30T03:40:33;13.31;72.45
9723;DHT22;4900;49.306;8.500;2023-04-30T03:42:58;13.31;72.39
9723;DHT22;4900;49.306;8.500;2023-04-30T03:45:23;13.31;72.38
9723;DHT22;4900;49.306;8.500;2023-04-30T03:47:50;13.28;72.43
9723;DHT22;4900;49.306;8.500;2023-04-30T03:50:16;13.29;72.40
9723;DHT22;4900;49.306;8.500;2023-04-30T03:52:42;13.26;72.48
9723;DHT22;4900;49.306;8.500;2023-04-30T03:55:08;13.25;72.65
9723;DHT22;4900;49.306;8.500;2023-04-30T03:57:33;13.24;72.76
9723;DHT22;4900;49.306;8.500;2023-04-30T03:59:58;13.24;72.84
9723;DHT22;4900;49.306;8.500;2023-04-30T04:02:24;13.24;72.90
9723;DHT22;4900;49.306;8.500;2023-04-30T04:04:50;13.22;72.99
9723;DHT22;4900;49.306;8.500;2023-04-30T04:07:16;13.21;73.03
9723;DHT22;4900;49.306;8.500;2023-04-30T04:09:41;13.22;73.08
9723;DHT22;4900;49.306;8.500;2023-04-30T04:12:07;13.21;73.13
9723;DHT22;4900;49.306;8.500;2023-04-30T04:14:32;13.16;73.16
9723;DHT22;4900;49.306;8.500;2023-04-30T04:16:58;13.16;73.18
9723;DHT22;4900;49.306;8.500;2023-04-30T04:19:29;13.15;73.15
9723;DHT22;4900;49.306;8.500;2023-04-30T04:21:55;13.19;73.06
9723;DHT22;4900;49.306;8.500;2023-04-30T04:24:24;13.16;73.00
9723;DHT22;4900;49.306;8.500;2023-04-30T04:26:49;13.19;72.97
9723;DHT22;4900;49.306;8.500;2023-04-30T04:29:15;13.21;72.92
9723;DHT22;4900;49.306;8.500;2023-04-30T04:31:40;13.22;72.84
9723;DHT22;4900;49.306;8.500;2023-04-30T04:34:07;13.24;72.94
9723;DHT22;4900;49.306;8.500;2023-04-30T04:36:32;13.24;72.90
9723;DHT22;4900;49.306;8.500;2023-04-30T04:38:59;13.25;72.91
9723;DHT22;4900;49.306;8.500;2023-04-30T04:41:29;13.28;72.99
9723;DHT22;4900;49.306;8.500;2023-04-30T04:43:54;13.31;73.01
9723;DHT22;4900;49.306;8.500;2023-04-30T04:46:21;13.35;72.97
9723;DHT22;4900;49.306;8.500;2023-04-30T04:48:47;13.39;72.84
9723;DHT22;4900;49.306;8.500;2023-04-30T04:51:13;13.44;72.74
9723;DHT22;4900;49.306;8.500;2023-04-30T04:53:38;13.47;72.67
9723;DHT22;4900;49.306;8.500;2023-04-30T04:56:04;13.53;72.59
9723;DHT22;4900;49.306;8.500;2023-04-30T04:58:31;13.61;72.47
9723;DHT22;4900;49.306;8.500;2023-04-30T05:00:57;13.64;72.36
9723;DHT22;4900;49.306;8.500;2023-04-30T05:03:24;13.73;72.25
9723;DHT22;4900;49.306;8.500;2023-04-30T05:05:51;13.81;72.10
9723;DHT22;4900;49.306;8.500;2023-04-30T05:08:16;13.81;71.97
9723;DHT22;4900;49.306;8.500;2023-04-30T05:10:42;13.87;71.84
9723;DHT22;4900;49.306;8.500;2023-04-30T05:13:07;13.94;71.68
9723;DHT22;4900;49.306;8.500;2023-04-30T05:15:32;14.04;71.48
9723;DHT22;4900;49.306;8.500;2023-04-30T05:17:58;14.11;71.21
9723;DHT22;4900;49.306;8.500;2023-04-30T05:20:23;14.16;70.92
9723;DHT22;4900;49.306;8.500;2023-04-30T05:22:49;14.28;70.69
9723;DHT22;4900;49.306;8.500;2023-04-30T05:25:14;14.30;70.46
9723;DHT22;4900;49.306;8.500;2023-04-30T05:27:40;14.46;70.19
9723;DHT22;4900;49.306;8.500;2023-04-30T05:30:06;14.57;69.90
9723;DHT22;4900;49.306;8.500;2023-04-30T05:32:31;14.67;69.61
9723;DHT22;4900;49.306;8.500;2023-04-30T05:34:56;14.83;69.20
9723;DHT22;4900;49.306;8.500;2023-04-30T05:37:22;14.92;68.92
9723;DHT22;4900;49.306;8.500;2023-04-30T05:39:47;15.01;68.65
9723;DHT22;4900;49.306;8.500;2023-04-30T05:42:13;15.16;68.31
9723;DHT22;4900;49.306;8.500;2023-04-30T05:44:39;15.29;68.07
9723;DHT22;4900;49.306;8.500;2023-04-30T05:47:05;15.44;67.62
9723;DHT22;4900;49.306;8.500;2023-04-30T05:49:30;15.46;67.37
9723;DHT22;4900;49.306;8.500;2023-04-30T05:51:56;15.59;66.78
9723;DHT22;4900;49.306;8.500;2023-04-30T05:54:21;15.68;65.80
9723;DHT22;4900;49.306;8.500;2023-04-30T05:56:47;15.81;65.44
9723;DHT22;4900;49.306;8.500;2023-04-30T05:59:12;15.89;64.65
9723;DHT22;4900;49.306;8.500;2023-04-30T06:01:38;16.06;64.43
9723;DHT22;4900;49.306;8.500;2023-04-30T06:04:03;16.09;63.76
9723;DHT22;4900;49.306;8.500;2023-04-30T06:06:29;16.32;63.27
9723;DHT22;4900;49.306;8.500;2023-04-30T06:08:56;16.50;62.99
9723;DHT22;4900;49.306;8.500;2023-04-30T06:11:21;16.71;62.49
9723;DHT22;4900;49.306;8.500;2023-04-30T06:13:49;16.98;61.87
9723;DHT22;4900;49.306;8.500;2023-04-30T06:16:15;17.23;61.30
9723;DHT22;4900;49.306;8.500;2023-04-30T06:18:41;17.49;60.58
9723;DHT22;4900;49.306;8.500;2023-04-30T06:21:06;17.63;59.43
9723;DHT22;4900;49.306;8.500;2023-04-30T06:23:32;17.74;58.28
9723;DHT22;4900;49.306;8.500;2023-04-30T06:25:57;17.99;58.10
9723;DHT22;4900;49.306;8.500;2023-04-30T06:28:23;18.56;57.35
9723;DHT22;4900;49.306;8.500;2023-04-30T06:30:48;19.12;55.31
9723;DHT22;4900;49.306;8.500;2023-04-30T06:33:14;19.55;54.10
9723;DHT22;4900;49.306;8.500;2023-04-30T06:35:39;19.86;53.67
9723;DHT22;4900;49.306;8.500;2023-04-30T06:38:05;19.82;53.34
9723;DHT22;4900;49.306;8.500;2023-04-30T06:40:30;20.08;52.41
9723;DHT22;4900;49.306;8.500;2023-04-30T06:42:56;20.55;51.37
9723;DHT22;4900;49.306;8.500;2023-04-30T06:45:21;20.72;50.88
9723;DHT22;4900;49.306;8.500;2023-04-30T06:47:47;21.06;50.47
9723;DHT22;4900;49.306;8.500;2023-04-30T06:50:13;20.82;50.25
9723;DHT22;4900;49.306;8.500;2023-04-30T06:52:39;20.74;50.40
9723;DHT22;4900;49.306;8.500;2023-04-30T06:55:05;20.44;50.55
9723;DHT22;4900;49.306;8.500;2023-04-30T06:57:31;20.33;50.85
9723;DHT22;4900;49.306;8.500;2023-04-30T06:59:56;20.26;51.06
9723;DHT22;4900;49.306;8.500;2023-04-30T07:02:22;20.51;51.41
9723;DHT22;4900;49.306;8.500;2023-04-30T07:04:48;20.58;50.89
9723;DHT22;4900;49.306;8.500;2023-04-30T07:07:13;21.03;50.61
9723;DHT22;4900;49.306;8.500;2023-04-30T07:09:39;21.58;49.19
9723;DHT22;4900;49.306;8.500;2023-04-30T07:12:04;21.99;48.60
9723;DHT22;4900;49.306;8.500;2023-04-30T07:14:30;22.61;47.66
9723;DHT22;4900;49.306;8.500;2023-04-30T07:16:55;23.16;46.51
9723;DHT22;4900;49.306;8.500;2023-04-30T07:19:21;23.58;45.43
9723;DHT22;4900;49.306;8.500;2023-04-30T07:21:47;23.93;44.71
9723;DHT22;4900;49.306;8.500;2023-04-30T07:24:13;24.23;43.98
9723;DHT22;4900;49.306;8.500;2023-04-30T07:26:38;24.44;43.31
9723;DHT22;4900;49.306;8.500;2023-04-30T07:29:04;24.72;42.78
9723;DHT22;4900;49.306;8.500;2023-04-30T07:31:29;24.96;42.24
9723;DHT22;4900;49.306;8.500;2023-04-30T07:33:54;25.19;41.74
9723;DHT22;4900;49.306;8.500;2023-04-30T07:36:21;25.17;41.25
9723;DHT22;4900;49.306;8.500;2023-04-30T07:38:47;25.20;41.59
9723;DHT22;4900;49.306;8.500;2023-04-30T07:41:12;25.53;40.89
9723;DHT22;4900;49.306;8.500;2023-04-30T07:43:38;25.67;40.45
9723;DHT22;4900;49.306;8.500;2023-04-30T07:46:03;25.81;39.81
9723;DHT22;4900;49.306;8.500;2023-04-30T07:48:29;25.92;39.75
9723;DHT22;4900;49.306;8.500;2023-04-30T07:50:55;26.19;39.49
9723;DHT22;4900;49.306;8.500;2023-04-30T07:53:22;26.22;39.06
9723;DHT22;4900;49.306;8.500;2023-04-30T07:55:47;26.26;39.09
9723;DHT22;4900;49.306;8.500;2023-04-30T07:58:13;26.57;38.70
9723;DHT22;4900;49.306;8.500;2023-04-30T08:00:38;26.85;38.18
9723;DHT22;4900;49.306;8.500;2023-04-30T08:03:04;27.09;37.61
9723;DHT22;4900;49.306;8.500;2023-04-30T08:05:29;27.24;37.28
9723;DHT22;4900;49.306;8.500;2023-04-30T08:07:55;27.48;36.86
9723;DHT22;4900;49.306;8.500;2023-04-30T08:10:21;27.27;36.74
9723;DHT22;4900;49.306;8.500;2023-04-30T08:12:46;27.50;36.16
9723;DHT22;4900;49.306;8.500;2023-04-30T08:15:12;27.78;36.00
9723;DHT22;4900;49.306;8.500;2023-04-30T08:17:37;28.08;35.54
9723;DHT22;4900;49.306;8.500;2023-04-30T08:20:03;28.29;35.40
9723;DHT22;4900;49.306;8.500;2023-04-30T08:22:29;28.33;35.27
9723;DHT22;4900;49.306;8.500;2023-04-30T08:24:55;28.45;34.87
9723;DHT22;4900;49.306;8.500;2023-04-30T08:27:21;28.69;35.07
9723;DHT22;4900;49.306;8.500;2023-04-30T08:29:46;29.07;34.35
9723;DHT22;4900;49.306;8.500;2023-04-30T08:32:12;29.14;34.06
9723;DHT22;4900;49.306;8.500;2023-04-30T08:34:37;29.37;33.81
9723;DHT22;4900;49.306;8.500;2023-04-30T08:37:05;29.51;33.71
9723;DHT22;4900;49.306;8.500;2023-04-30T08:39:31;29.88;33.11
9723;DHT22;4900;49.306;8.500;2023-04-30T08:42:01;30.21;32.40
9723;DHT22;4900;49.306;8.500;2023-04-30T08:44:28;30.33;32.28
9723;DHT22;4900;49.306;8.500;2023-04-30T08:46:57;30.21;32.30
9723;DHT22;4900;49.306;8.500;2023-04-30T08:49:23;30.40;32.34
9723;DHT22;4900;49.306;8.500;2023-04-30T08:51:49;30.72;31.63
9723;DHT22;4900;49.306;8.500;2023-04-30T08:54:16;31.03;31.70
9723;DHT22;4900;49.306;8.500;2023-04-30T08:56:43;31.24;31.18
9723;DHT22;4900;49.306;8.500;2023-04-30T08:59:10;31.43;30.28
9723;DHT22;4900;49.306;8.500;2023-04-30T09:01:36;31.77;29.58
9723;DHT22;4900;49.306;8.500;2023-04-30T09:04:05;31.75;28.93
9723;DHT22;4900;49.306;8.500;2023-04-30T09:06:30;32.20;29.02
9723;DHT22;4900;49.306;8.500;2023-04-30T09:08:56;32.24;28.57
9723;DHT22;4900;49.306;8.500;2023-04-30T09:11:22;31.97;27.00
9723;DHT22;4900;49.306;8.500;2023-04-30T09:13:53;32.39;26.89
9723;DHT22;4900;49.306;8.500;2023-04-30T09:16:20;32.70;26.93
9723;DHT22;4900;49.306;8.500;2023-04-30T09:18:47;32.86;26.90
9723;DHT22;4900;49.306;8.500;2023-04-30T09:21:13;33.12;27.17
9723;DHT22;4900;49.306;8.500;2023-04-30T09:23:59;33.50;26.66
9723;DHT22;4900;49.306;8.500;2023-04-30T09:26:36;32.88;26.54
9723;DHT22;4900;49.306;8.500;2023-04-30T09:29:02;33.08;26.01
9723;DHT22;4900;49.306;8.500;2023-04-30T09:31:43;33.34;25.32
9723;DHT22;4900;49.306;8.500;2023-04-30T09:34:09;33.33;25.72
9723;DHT22;4900;49.306;8.500;2023-04-30T09:36:35;32.85;25.63
9723;DHT22;4900;49.306;8.500;2023-04-30T09:39:11;32.88;25.14
9723;DHT22;4900;49.306;8.500;2023-04-30T09:41:38;32.26;25.85
9723;DHT22;4900;49.306;8.500;2023-04-30T09:44:03;31.72;26.39
9723;DHT22;4900;49.306;8.500;2023-04-30T09:46:30;31.44;26.92
9723;DHT22;4900;49.306;8.500;2023-04-30T09:48:59;30.76;27.54
9723;DHT22;4900;49.306;8.500;2023-04-30T09:51:25;30.54;28.21
9723;DHT22;4900;49.306;8.500;2023-04-30T09:53:52;30.62;28.61
9723;DHT22;4900;49.306;8.500;2023-04-30T09:56:23;30.48;28.67
9723;DHT22;4900;49.306;8.500;2023-04-30T09:58:51;30.19;29.20
9723;DHT22;4900;49.306;8.500;2023-04-30T10:01:18;29.78;29.15
9723;DHT22;4900;49.306;8.500;2023-04-30T10:03:44;29.69;29.49
9723;DHT22;4900;49.306;8.500;2023-04-30T10:06:14;29.23;29.10
9723;DHT22;4900;49.306;8.500;2023-04-30T10:09:01;29.23;29.01
9723;DHT22;4900;49.306;8.500;2023-04-30T10:11:29;29.09;29.72
9723;DHT22;4900;49.306;8.500;2023-04-30T10:14:02;29.03;29.58
9723;DHT22;4900;49.306;8.500;2023-04-30T10:16:39;28.82;29.32
9723;DHT22;4900;49.306;8.500;2023-04-30T10:19:13;28.58;29.84
9723;DHT22;4900;49.306;8.500;2023-04-30T10:21:39;28.92;29.21
9723;DHT22;4900;49.306;8.500;2023-04-30T10:24:08;28.88;29.80
9723;DHT22;4900;49.306;8.500;2023-04-30T10:26:34;28.67;30.06
9723;DHT22;4900;49.306;8.500;2023-04-30T10:29:01;28.43;29.80
9723;DHT22;4900;49.306;8.500;2023-04-30T10:31:27;28.45;30.13
9723;DHT22;4900;49.306;8.500;2023-04-30T10:34:16;28.43;30.66
9723;DHT22;4900;49.306;8.500;2023-04-30T10:36:46;28.89;30.01
9723;DHT22;4900;49.306;8.500;2023-04-30T10:39:16;28.89;29.73
9723;DHT22;4900;49.306;8.500;2023-04-30T10:41:46;28.85;29.59
9723;DHT22;4900;49.306;8.500;2023-04-30T10:44:14;28.81;29.86
9723;DHT22;4900;49.306;8.500;2023-04-30T10:46:40;28.61;30.34
9723;DHT22;4900;49.306;8.500;2023-04-30T10:49:06;28.51;31.01
9723;DHT22;4900;49.306;8.500;2023-04-30T10:51:49;28.23;31.17
9723;DHT22;4900;49.306;8.500;2023-04-30T10:54:48;28.27;31.48
9723;DHT22;4900;49.306;8.500;2023-04-30T10:57:15;28.12;31.46
9723;DHT22;4900;49.306;8.500;2023-04-30T11:00:16;27.95;31.30
9723;DHT22;4900;49.306;8.500;2023-04-30T11:02:42;27.85;31.15
9723;DHT22;4900;49.306;8.500;2023-04-30T11:05:13;27.64;31.33
9723;DHT22;4900;49.306;8.500;2023-04-30T11:10:10;27.21;31.62
9723;DHT22;4900;49.306;8.500;2023-04-30T11:12:40;27.27;31.81
9723;DHT22;4900;49.306;8.500;2023-04-30T11:15:10;27.27;32.19
9723;DHT22;4900;49.306;8.500;2023-04-30T11:17:36;27.37;32.36
9723;DHT22;4900;49.306;8.500;2023-04-30T11:20:03;27.35;32.74
9723;DHT22;4900;49.306;8.500;2023-04-30T11:22:29;26.84;32.78
9723;DHT22;4900;49.306;8.500;2023-04-30T11:25:08;27.00;32.14
9723;DHT22;4900;49.306;8.500;2023-04-30T11:27:36;26.72;32.16
9723;DHT22;4900;49.306;8.500;2023-04-30T11:30:05;26.86;32.29
9723;DHT22;4900;49.306;8.500;2023-04-30T11:32:35;27.02;32.68
9723;DHT22;4900;49.306;8.500;2023-04-30T11:35:02;26.84;32.78
9723;DHT22;4900;49.306;8.500;2023-04-30T11:37:41;27.07;32.83
9723;DHT22;4900;49.306;8.500;2023-04-30T11:40:10;27.09;32.76
9723;DHT22;4900;49.306;8.500;2023-04-30T11:42:36;27.20;32.54
9723;DHT22;4900;49.306;8.500;2023-04-30T11:45:08;27.40;32.67
9723;DHT22;4900;49.306;8.500;2023-04-30T11:47:57;27.46;32.28
9723;DHT22;4900;49.306;8.500;2023-04-30T11:50:32;27.64;32.32
9723;DHT22;4900;49.306;8.500;2023-04-30T11:52:58;28.01;32.02
9723;DHT22;4900;49.306;8.500;2023-04-30T11:55:27;28.27;31.91
9723;DHT22;4900;49.306;8.500;2023-04-30T11:57:54;28.65;31.49
9723;DHT22;4900;49.306;8.500;2023-04-30T12:00:26;28.81;31.09
9723;DHT22;4900;49.306;8.500;2023-04-30T12:02:52;29.02;30.82
9723;DHT22;4900;49.306;8.500;2023-04-30T12:05:22;29.16;30.39
9723;DHT22;4900;49.306;8.500;2023-04-30T12:07:55;29.14;30.17
9723;DHT22;4900;49.306;8.500;2023-04-30T12:10:21;29.38;29.98
9723;DHT22;4900;49.306;8.500;2023-04-30T12:12:47;29.25;29.73
9723;DHT22;4900;49.306;8.500;2023-04-30T12:15:18;29.43;29.26
9723;DHT22;4900;49.306;8.500;2023-04-30T12:17:46;29.50;29.58
9723;DHT22;4900;49.306;8.500;2023-04-30T12:20:13;29.61;29.90
9723;DHT22;4900;49.306;8.500;2023-04-30T12:22:40;29.81;30.00
9723;DHT22;4900;49.306;8.500;2023-04-30T12:25:17;30.45;29.47
9723;DHT22;4900;49.306;8.500;2023-04-30T12:27:47;30.90;28.57
9723;DHT22;4900;49.306;8.500;2023-04-30T12:30:14;31.07;28.30
9723;DHT22;4900;49.306;8.500;2023-04-30T12:32:47;31.27;27.98
9723;DHT22;4900;49.306;8.500;2023-04-30T12:35:16;31.62;27.75
9723;DHT22;4900;49.306;8.500;2023-04-30T12:37:43;31.90;27.16
9723;DHT22;4900;49.306;8.500;2023-04-30T12:40:09;32.39;26.85
9723;DHT22;4900;49.306;8.500;2023-04-30T12:42:35;32.58;26.73
9723;DHT22;4900;49.306;8.500;2023-04-30T12:45:00;32.65;26.05
9723;DHT22;4900;49.306;8.500;2023-04-30T12:47:26;32.79;26.20
9723;DHT22;4900;49.306;8.500;2023-04-30T12:49:52;32.71;25.97
9723;DHT22;4900;49.306;8.500;2023-04-30T12:52:23;32.33;26.11
9723;DHT22;4900;49.306;8.500;2023-04-30T12:54:48;31.75;26.57
9723;DHT22;4900;49.306;8.500;2023-04-30T12:57:14;31.13;27.21
9723;DHT22;4900;49.306;8.500;2023-04-30T12:59:56;30.81;27.45
9723;DHT22;4900;49.306;8.500;2023-04-30T13:02:24;31.23;27.38
9723;DHT22;4900;49.306;8.500;2023-04-30T13:04:52;31.57;27.66
9723;DHT22;4900;49.306;8.500;2023-04-30T13:07:17;31.89;27.59
9723;DHT22;4900;49.306;8.500;2023-04-30T13:09:43;31.97;27.43
9723;DHT22;4900;49.306;8.500;2023-04-30T13:12:08;32.10;27.38
9723;DHT22;4900;49.306;8.500;2023-04-30T13:14:34;32.20;27.36
9723;DHT22;4900;49.306;8.500;2023-04-30T13:17:00;32.32;27.58
9723;DHT22;4900;49.306;8.500;2023-04-30T13:19:29;31.90;27.31
9723;DHT22;4900;49.306;8.500;2023-04-30T13:21:54;31.38;27.49
9723;DHT22;4900;49.306;8.500;2023-04-30T13:24:20;30.82;27.65
9723;DHT22;4900;49.306;8.500;2023-04-30T13:26:46;30.62;27.93
9723;DHT22;4900;49.306;8.500;2023-04-30T13:29:12;30.57;28.77
9723;DHT22;4900;49.306;8.500;2023-04-30T13:31:37;30.92;28.66
9723;DHT22;4900;49.306;8.500;2023-04-30T13:34:03;31.35;28.31
9723;DHT22;4900;49.306;8.500;2023-04-30T13:36:28;31.96;28.31
9723;DHT22;4900;49.306;8.500;2023-04-30T13:38:54;32.64;28.34
9723;DHT22;4900;49.306;8.500;2023-04-30T13:41:20;33.45;27.97
9723;DHT22;4900;49.306;8.500;2023-04-30T13:43:47;33.98;27.08
9723;DHT22;4900;49.306;8.500;2023-04-30T13:46:13;34.59;26.02
9723;DHT22;4900;49.306;8.500;2023-04-30T13:48:39;34.91;25.06
9723;DHT22;4900;49.306;8.500;2023-04-30T13:51:05;35.22;24.89
9723;DHT22;4900;49.306;8.500;2023-04-30T13:53:31;35.25;24.71
9723;DHT22;4900;49.306;8.500;2023-04-30T13:55:56;35.08;24.68
9723;DHT22;4900;49.306;8.500;2023-04-30T13:58:24;35.05;24.66
9723;DHT22;4900;49.306;8.500;2023-04-30T14:00:49;34.80;23.82
9723;DHT22;4900;49.306;8.500;2023-04-30T14:03:17;34.79;24.35
9723;DHT22;4900;49.306;8.500;2023-04-30T14:05:42;34.50;24.38
9723;DHT22;4900;49.306;8.500;2023-04-30T14:08:08;34.29;24.29
9723;DHT22;4900;49.306;8.500;2023-04-30T14:10:33;34.18;24.46
9723;DHT22;4900;49.306;8.500;2023-04-30T14:12:59;33.90;24.62
9723;DHT22;4900;49.306;8.500;2023-04-30T14:15:24;33.95;24.89
9723;DHT22;4900;49.306;8.500;2023-04-30T14:17:50;34.16;25.34
9723;DHT22;4900;49.306;8.500;2023-04-30T14:20:17;34.36;25.01
9723;DHT22;4900;49.306;8.500;2023-04-30T14:22:42;34.40;24.73
9723;DHT22;4900;49.306;8.500;2023-04-30T14:25:08;34.68;24.84
9723;DHT22;4900;49.306;8.500;2023-04-30T14:27:34;34.83;24.36
9723;DHT22;4900;49.306;8.500;2023-04-30T14:30:00;34.88;24.51
9723;DHT22;4900;49.306;8.500;2023-04-30T14:32:26;35.01;24.63
9723;DHT22;4900;49.306;8.500;2023-04-30T14:34:52;35.02;24.18
9723;DHT22;4900;49.306;8.500;2023-04-30T14:37:17;35.31;23.90
9723;DHT22;4900;49.306;8.500;2023-04-30T14:39:43;35.45;24.10
9723;DHT22;4900;49.306;8.500;2023-04-30T14:42:09;35.35;24.22
9723;DHT22;4900;49.306;8.500;2023-04-30T14:44:36;35.43;23.51
9723;DHT22;4900;49.306;8.500;2023-04-30T14:47:01;35.78;23.28
9723;DHT22;4900;49.306;8.500;2023-04-30T14:49:27;35.78;23.13
9723;DHT22;4900;49.306;8.500;2023-04-30T14:51:53;36.28;23.60
9723;DHT22;4900;49.306;8.500;2023-04-30T14:54:18;36.31;23.09
9723;DHT22;4900;49.306;8.500;2023-04-30T14:56:44;36.39;22.91
9723;DHT22;4900;49.306;8.500;2023-04-30T14:59:10;36.28;22.62
9723;DHT22;4900;49.306;8.500;2023-04-30T15:01:37;36.04;22.69
9723;DHT22;4900;49.306;8.500;2023-04-30T15:04:02;36.14;22.86
9723;DHT22;4900;49.306;8.500;2023-04-30T15:06:28;36.06;23.14
9723;DHT22;4900;49.306;8.500;2023-04-30T15:08:53;36.08;23.22
9723;DHT22;4900;49.306;8.500;2023-04-30T15:11:19;35.86;23.24
9723;DHT22;4900;49.306;8.500;2023-04-30T15:13:44;35.76;23.30
9723;DHT22;4900;49.306;8.500;2023-04-30T15:16:10;35.66;22.73
9723;DHT22;4900;49.306;8.500;2023-04-30T15:18:36;35.54;22.99
9723;DHT22;4900;49.306;8.500;2023-04-30T15:21:02;35.12;22.74
9723;DHT22;4900;49.306;8.500;2023-04-30T15:23:27;34.50;23.48
9723;DHT22;4900;49.306;8.500;2023-04-30T15:25:54;33.94;23.81
9723;DHT22;4900;49.306;8.500;2023-04-30T15:28:21;33.68;23.90
9723;DHT22;4900;49.306;8.500;2023-04-30T15:30:49;33.58;23.56
9723;DHT22;4900;49.306;8.500;2023-04-30T15:33:14;33.58;23.97
9723;DHT22;4900;49.306;8.500;2023-04-30T15:35:40;33.53;24.22
9723;DHT22;4900;49.306;8.500;2023-04-30T15:38:06;33.34;24.64
9723;DHT22;4900;49.306;8.500;2023-04-30T15:40:31;33.31;24.58
9723;DHT22;4900;49.306;8.500;2023-04-30T15:42:57;33.42;24.71
9723;DHT22;4900;49.306;8.500;2023-04-30T15:45:22;33.53;25.00
9723;DHT22;4900;49.306;8.500;2023-04-30T15:47:50;33.75;25.10
9723;DHT22;4900;49.306;8.500;2023-04-30T15:50:15;33.95;24.64
9723;DHT22;4900;49.306;8.500;2023-04-30T15:52:40;34.04;24.51
9723;DHT22;4900;49.306;8.500;2023-04-30T15:55:07;34.04;24.39
9723;DHT22;4900;49.306;8.500;2023-04-30T15:57:32;33.75;24.20
9723;DHT22;4900;49.306;8.500;2023-04-30T15:59:58;33.50;24.29
9723;DHT22;4900;49.306;8.500;2023-04-30T16:02:23;33.27;24.46
9723;DHT22;4900;49.306;8.500;2023-04-30T16:04:49;32.84;24.78
9723;DHT22;4900;49.306;8.500;2023-04-30T16:07:14;32.41;25.38
9723;DHT22;4900;49.306;8.500;2023-04-30T16:09:40;31.93;25.65
9723;DHT22;4900;49.306;8.500;2023-04-30T16:12:09;31.51;26.01
9723;DHT22;4900;49.306;8.500;2023-04-30T16:14:35;31.19;25.85